Latest Coastal Weather Observations for Redcliffe

IDQ60701

Issued at 2:02 am EST Saturday 30 April 2016 (issued every 10 minutes, with the page automatically refreshed every 10 minutes)

About coastal observations | Map of coastal stations | Coastal observations for QLD | Marine services | Other Formats
Station Details ID: 040958 Name: REDCLIFFE Lat: -27.22 Lon: 153.09 Height: 12.6 m
Data from the previous 72 hours. | See also: Recent months at Redcliffe
Date/Time
EST
Temp

°C
Wind Pressure Rain
since 9am
mm
Weather Cloud Vis
km
Sea
Height
m
Swell
Dir
 
Speed
knots
Gust
knots
hPa Trend Height
m
Period
s
Dir
30/02:00am 20.9 WSW 6 7 1020.5 - 7.0 - - - - - - -
30/01:30am 20.9 WSW 5 7 1020.8 - 7.0 - - - - - - -
30/01:00am 21.0 W 6 7 1021.1 - 7.0 - - - - - - -
30/12:30am 20.9 W 4 5 1021.5 - 7.0 - - - - - - -
30/12:00am 21.0 SW 3 4 1021.5 - 7.0 - - - - - - -
 
Date/Time
EST
Temp

°C
Wind Pressure Rain
since 9am
mm
Weather Cloud Vis
km
Sea
Height
m
Swell
Dir
 
Speed
knots
Gust
knots
hPa Trend Height
m
Period
s
Dir
29/11:30pm 21.0 SSW 5 7 1021.8 - 7.0 - - - - - - -
29/11:00pm 21.1 SSW 5 7 1022.0 - 7.0 - - - - - - -
29/10:30pm 21.3 SSW 6 7 1022.2 - 7.0 - - - - - - -
29/10:00pm 21.6 S 5 7 1022.4 - 7.0 - - - - - - -
29/09:30pm 21.5 ESE 5 6 1022.2 - 7.0 - - - - - - -
29/09:00pm 21.5 ESE 6 7 1022.2 - 7.0 - - - - - - -
29/08:30pm 21.9 ESE 6 6 1022.1 - 7.0 - - - - - - -
29/08:00pm 21.9 ESE 7 8 1022.1 - 7.0 - - - - - - -
29/07:30pm 22.2 SSE 8 10 1021.8 - 7.0 - - - - - - -
29/07:00pm 22.6 ESE 8 10 1021.4 - 7.0 - - - - - - -
29/06:30pm 22.9 ESE 11 14 1021.2 - 7.0 - - - - - - -
29/06:00pm 22.9 ESE 10 12 1021.1 - 7.0 - - - - - - -
29/05:30pm 23.1 ESE 12 14 1020.8 - 7.0 - - - - - - -
29/05:00pm 23.3 ESE 12 14 1020.5 - 7.0 - - - - - - -
29/04:30pm 23.4 ESE 13 14 1020.3 - 7.0 - - - - - - -
29/04:00pm 22.8 ESE 11 13 1020.1 - 7.0 - - - - - - -
29/03:30pm 21.7 SSE 6 15 1020.2 - 5.4 - - - - - - -
29/03:00pm 21.7 SE 9 12 1020.2 - 1.6 Rain - - - - - -
29/02:30pm 22.2 SE 15 19 1020.2 - 0.8 - - - - - - -
29/02:00pm 24.3 ESE 14 18 1020.1 - 0.0 - - - - - - -
29/01:30pm 24.9 S 8 9 1020.3 - 0.0 - - - - - - -
29/01:00pm 24.2 SSW 8 9 1020.5 - 0.0 - - - - - - -
29/12:30pm 24.5 SSW 8 11 1020.9 - 0.0 - - - - - - -
29/12:00pm 24.3 S 8 10 1021.4 - 0.0 - - - - - - -
29/11:30am 23.4 SSW 7 8 1022.1 - 0.0 - - - - - - -
29/11:00am 23.1 SSW 7 10 1022.9 - 0.0 - - - - - - -
29/10:30am 22.5 SSW 7 9 1023.6 - 0.0 - - - - - - -
29/10:00am 22.5 SSW 9 11 1024.0 - 0.0 - - - - - - -
29/09:30am 21.7 SSW 7 10 1023.9 - 0.0 - - - - - - -
29/09:00am 21.2 SSW 8 10 1024.0 - 3.2 - - - - - - -
29/08:30am 21.1 SSW 7 9 1023.9 - 3.2 - - - - - - -
29/08:00am 19.8 SSW 7 10 1023.8 - 3.2 - - - - - - -
29/07:30am 19.4 SSW 7 10 1023.6 - 3.2 - - - - - - -
29/07:00am 19.0 SSW 5 6 1023.2 - 3.2 - - - - - - -
29/06:30am 18.7 S 5 6 1023.2 - 2.8 - - - - - - -
29/06:00am 19.1 SW 5 6 1023.1 - 2.6 - - - - - - -
29/05:30am 19.6 S 7 7 1022.6 - 2.6 - - - - - - -
29/05:00am 19.5 SSW 7 9 1022.2 - 2.6 - - - - - - -
29/04:30am 19.1 SSW 7 8 1022.0 - 2.6 - - - - - - -
29/04:00am 19.0 SSW 7 9 1021.9 - 2.6 - - - - - - -
29/03:30am 18.2 SSW 8 10 1022.0 - 2.6 - - - - - - -
29/03:00am 18.0 SSW 8 10 1021.8 - 2.6 - - - - - - -
29/02:30am 18.1 SSW 8 9 1022.2 - 2.6 - - - - - - -
29/02:00am 18.2 SSW 7 8 1022.4 - 2.6 - - - - - - -
29/01:30am 18.7 SW 7 8 1022.7 - 2.6 - - - - - - -
29/01:00am 19.0 SW 5 7 1022.7 - 2.6 - - - - - - -
29/12:30am 19.0 SSW 6 7 1022.8 - 2.6 - - - - - - -
29/12:00am 19.3 SSE 8 10 1022.9 - 2.6 - - - - - - -
 
Date/Time
EST
Temp

°C
Wind Pressure Rain
since 9am
mm
Weather Cloud Vis
km
Sea
Height
m
Swell
Dir
 
Speed
knots
Gust
knots
hPa Trend Height
m
Period
s
Dir
28/11:30pm 19.9 ESE 9 10 1023.1 - 2.6 - - - - - - -
28/11:00pm 22.1 ESE 9 10 1023.4 - 2.6 - - - - - - -
28/10:30pm 22.5 ESE 10 12 1023.4 - 2.6 - - - - - - -
28/10:00pm 22.5 ESE 11 13 1023.5 - 2.6 - - - - - - -
28/09:30pm 22.6 ESE 10 12 1023.7 - 2.6 - - - - - - -
28/09:00pm 22.3 E 9 11 1023.7 - 2.6 - - - - - - -
28/08:30pm 22.3 E 10 13 1023.4 - 2.6 - - - - - - -
28/08:00pm 22.4 E 9 11 1023.2 - 2.6 - - - - - - -
28/07:30pm 22.5 E 8 9 1023.1 - 2.6 - - - - - - -
28/07:00pm 22.6 E 9 10 1023.0 - 2.6 - - - - - - -
28/06:30pm 22.6 ESE 10 11 1022.6 - 2.6 - - - - - - -
28/06:00pm 22.8 E 9 11 1022.4 - 2.6 - - - - - - -
28/05:30pm 22.9 E 10 12 1022.2 - 2.6 - - - - - - -
28/05:00pm 23.1 E 11 13 1022.0 - 2.6 - - - - - - -
28/04:30pm 23.0 E 9 10 1021.7 - 2.6 - - - - - - -
28/04:00pm 22.8 ESE 8 13 1021.7 - 2.6 - - - - - - -
28/03:30pm 22.6 WNW 2 4 1021.8 - 2.6 - - - - - - -
28/03:00pm 22.1 WNW 5 6 1021.6 - 2.6 Recent precip. - - - - - -
28/02:30pm 21.4 N 6 8 1021.6 - 2.6 - - - - - - -
28/02:00pm 21.3 NNE 7 9 1021.8 - 2.4 - - - - - - -
28/01:30pm 22.0 N 6 7 1021.7 - 1.8 - - - - - - -
28/01:00pm 22.0 N 7 7 1022.2 - 1.8 - - - - - - -
28/12:30pm 21.6 E 13 22 1022.5 - 1.0 - - - - - - -
28/12:17pm 23.7 NE 15 19 1022.5 - 0.8 - - - - - - -
28/12:00pm 23.7 ESE 7 9 1022.6 - 0.8 - - - - - - -
28/11:30am 24.4 ESE 10 12 1022.8 - 0.8 - - - - - - -
28/11:00am 25.0 ESE 11 14 1023.1 - 0.8 - - - - - - -
28/10:30am 24.9 ESE 10 13 1023.4 - 0.8 - - - - - - -
28/10:00am 24.1 S 7 9 1023.6 - 0.8 - - - - - - -
28/09:30am 22.7 S 8 9 1023.6 - 0.8 - - - - - - -
28/09:00am 22.7 SSW 8 9 1023.7 - 0.2 - - - - - - -
28/08:30am 21.8 SSW 8 10 1023.6 - 0.2 - - - - - - -
28/08:00am 21.3 SSW 8 9 1023.2 - 0.2 - - - - - - -
28/07:30am 20.3 SSW 7 11 1023.1 - 0.2 - - - - - - -
28/07:00am 19.1 SW 6 8 1022.7 - 0.2 - - - - - - -
28/06:30am 18.6 SSW 7 10 1022.5 - 0.2 - - - - - - -
28/06:00am 18.7 SSW 8 12 1022.3 - 0.2 - - - - - - -
28/05:30am 18.6 SW 7 10 1022.2 - 0.2 - - - - - - -
28/05:00am 18.6 SSW 8 11 1022.0 - 0.2 - - - - - - -
28/04:30am 18.7 SSW 7 10 1021.8 - 0.2 - - - - - - -
28/04:00am 18.8 SW 8 10 1021.9 - 0.2 - - - - - - -
28/03:30am 18.7 SSW 8 11 1021.7 - 0.2 - - - - - - -
28/03:00am 18.8 SSW 7 10 1021.8 - 0.2 - - - - - - -
28/02:30am 18.9 SSW 8 11 1022.0 - 0.2 - - - - - - -
28/02:00am 19.0 SW 7 9 1022.3 - 0.2 - - - - - - -
28/01:30am 19.2 WSW 6 8 1022.4 - 0.2 - - - - - - -
28/01:00am 19.4 N 5 6 1022.6 - 0.2 - - - - - - -
28/12:30am 19.1 SSW 7 9 1022.5 - 0.0 - - - - - - -
28/12:00am 19.0 SSW 7 9 1022.7 - 0.0 - - - - - - -
 
Date/Time
EST
Temp

°C
Wind Pressure Rain
since 9am
mm
Weather Cloud Vis
km
Sea
Height
m
Swell
Dir
 
Speed
knots
Gust
knots
hPa Trend Height
m
Period
s
Dir
27/11:30pm 19.3 SW 7 9 1022.9 - 0.0 - - - - - - -
27/11:00pm 19.6 SSW 8 10 1023.0 - 0.0 - - - - - - -
27/10:30pm 19.8 SSW 7 10 1023.0 - 0.0 - - - - - - -
27/10:00pm 19.7 S 11 14 1023.2 - 0.0 - - - - - - -
27/09:30pm 19.9 S 14 17 1023.2 - 0.0 - - - - - - -
27/09:00pm 20.3 S 13 15 1023.2 - 0.0 - - - - - - -
27/08:30pm 20.1 S 13 17 1023.1 - 0.0 - - - - - - -
27/08:00pm 20.2 SSW 9 13 1023.0 - 0.0 - - - - - - -
27/07:30pm 20.4 S 11 15 1022.8 - 0.0 - - - - - - -
27/07:00pm 20.9 SSW 10 15 1022.8 - 0.0 - - - - - - -
27/06:30pm 21.6 S 16 18 1022.5 - 0.0 - - - - - - -
27/06:00pm 21.7 SSE 15 17 1022.1 - 0.0 - - - - - - -
27/05:30pm 21.8 SSE 16 18 1021.9 - 0.0 - - - - - - -
27/05:00pm 21.5 SSE 12 15 1021.8 - 0.0 - - - - - - -
27/04:30pm 21.7 SSE 14 16 1021.6 - 0.0 - - - - - - -
27/04:00pm 22.8 SSE 16 18 1021.2 - 0.0 - - - - - - -
27/03:30pm 22.8 SSE 13 15 1021.2 - 0.0 - - - - - - -
27/03:00pm 22.7 SSE 18 20 1021.1 - 0.0 - - - - - - -
27/02:30pm 23.4 SSE 19 22 1021.1 - 0.0 - - - - - - -
27/02:00pm 22.7 SSE 16 18 1021.3 - 0.0 - - - - - - -
27/01:30pm 22.9 SSE 21 25 1021.4 - 0.0 - - - - - - -
27/01:00pm 23.4 SSE 20 23 1021.6 - 0.0 - - - - - - -
27/12:31pm 24.3 SSE 19 29 1021.8 - 0.0 - - - - - - -
27/12:30pm 24.1 SSE 18 27 1021.8 - 0.0 - - - - - - -
27/12:00pm 23.8 SE 20 24 1022.4 - 0.0 - - - - - - -
27/11:30am 24.0 SE 20 23 1022.7 - 0.0 - - - - - - -
27/11:00am 24.2 SE 18 20 1023.0 - 0.0 - - - - - - -
27/10:30am 24.4 SE 19 22 1023.2 - 0.0 - - - - - - -
27/10:00am 24.1 SSE 16 19 1023.5 - 0.0 - - - - - - -
27/09:30am 24.1 S 13 16 1023.6 - 0.0 - - - - - - -
27/09:00am 23.4 S 11 14 1023.9 - 0.8 - - - - - - -
27/08:30am 21.8 S 13 15 1023.9 - 0.8 - - - - - - -
27/08:00am 21.7 S 11 15 1023.9 - 0.8 - - - - - - -
27/07:30am 20.6 SSW 10 15 1023.5 - 0.8 - - - - - - -
27/07:00am 20.1 SSW 9 13 1023.1 - 0.8 - - - - - - -
27/06:30am 19.7 S 11 14 1022.9 - 0.8 - - - - - - -
27/06:00am 19.5 SSW 9 13 1022.6 - 0.8 - - - - - - -
27/05:30am 19.4 SSW 9 12 1022.4 - 0.8 - - - - - - -
27/05:00am 19.2 SSW 7 9 1022.3 - 0.8 - - - - - - -
27/04:30am 19.3 SSW 8 10 1022.4 - 0.8 - - - - - - -
27/04:00am 19.5 SSW 8 11 1022.2 - 0.8 - - - - - - -
27/03:30am 19.1 SSW 10 13 1022.0 - 0.8 - - - - - - -
27/03:00am 19.5 S 11 15 1022.2 - 0.8 - - - - - - -
27/02:30am 19.7 SSW 10 14 1022.5 - 0.8 - - - - - - -

Other Formats:

Comma delimited format used in spreadsheet applications
http://www.bom.gov.au/fwo/IDQ60701/IDQ60701.95591.axf

JavaScript Object Notation format (JSON) in row-major order
http://www.bom.gov.au/fwo/IDQ60701/IDQ60701.95591.json